createdAt,value
2022-11-12T00:01:58.577Z,8.57
2022-11-12T00:04:28.856Z,8.23
2022-11-12T00:06:59.088Z,7.68
2022-11-12T00:09:31.731Z,8.38
2022-11-12T00:12:01.869Z,7.97
2022-11-12T00:14:31.858Z,8.15
2022-11-12T00:17:01.934Z,8.50
2022-11-12T00:19:31.966Z,8.18
2022-11-12T00:22:02.340Z,7.32
2022-11-12T00:24:35.122Z,7.90
2022-11-12T00:27:06.323Z,7.43
2022-11-12T00:32:06.478Z,7.82
2022-11-12T00:34:38.212Z,8.27
2022-11-12T00:37:08.786Z,7.20
2022-11-12T00:39:41.470Z,8.32
2022-11-12T00:42:11.809Z,7.68
2022-11-12T00:44:42.040Z,8.00
2022-11-12T00:47:12.240Z,8.70
2022-11-12T00:49:42.807Z,8.15
2022-11-12T00:52:12.899Z,7.70
2022-11-12T00:54:45.635Z,7.75
2022-11-12T00:57:15.715Z,8.60
2022-11-12T00:59:45.776Z,8.07
2022-11-12T01:02:15.831Z,8.15
2022-11-12T01:04:46.115Z,7.75
2022-11-12T01:07:16.474Z,7.75
2022-11-12T01:09:49.283Z,7.45
2022-11-12T01:12:19.375Z,7.13
2022-11-12T01:14:49.483Z,7.53
2022-11-12T01:17:19.651Z,7.28
2022-11-12T01:19:49.656Z,7.20
2022-11-12T01:22:20.349Z,8.48
2022-11-12T01:24:53.337Z,7.97
2022-11-12T01:27:23.719Z,7.72
2022-11-12T01:29:53.766Z,7.38
2022-11-12T01:32:26.999Z,7.95
2022-11-12T01:34:57.064Z,7.80
2022-11-12T01:37:27.147Z,8.20
2022-11-12T01:39:59.846Z,8.13
2022-11-12T01:42:32.882Z,7.18
2022-11-12T01:45:03.025Z,7.38
2022-11-12T01:47:36.013Z,7.13
2022-11-12T01:50:16.915Z,7.43
2022-11-12T01:52:51.732Z,7.15
2022-11-12T01:55:28.820Z,7.18
2022-11-12T01:58:03.335Z,7.22
2022-11-12T02:00:33.611Z,6.93
2022-11-12T02:03:05.993Z,7.43
2022-11-12T02:05:40.035Z,7.03
2022-11-12T02:08:13.052Z,6.82
2022-11-12T02:10:45.702Z,7.78
2022-11-12T02:13:28.243Z,7.72
2022-11-12T02:15:59.053Z,7.60
2022-11-12T02:18:29.536Z,7.03
2022-11-12T02:21:01.976Z,7.70
2022-11-12T02:23:34.624Z,7.35
2022-11-12T02:26:04.807Z,7.63
2022-11-12T02:28:36.441Z,7.78
2022-11-12T02:31:06.663Z,6.82
2022-11-12T02:33:38.440Z,7.00
2022-11-12T02:36:09.099Z,7.13
2022-11-12T02:38:47.859Z,6.60
2022-11-12T02:41:18.399Z,7.45
2022-11-12T02:43:48.735Z,6.32
2022-11-12T02:46:19.087Z,6.65
2022-11-12T02:48:49.150Z,7.00
2022-11-12T02:51:19.124Z,7.07
2022-11-12T02:53:51.757Z,6.85
2022-11-12T02:56:21.689Z,7.03
2022-11-12T02:58:52.087Z,7.25
2022-11-12T03:01:22.162Z,7.15
2022-11-12T03:03:52.230Z,7.20
2022-11-12T03:06:22.549Z,8.32
2022-11-12T03:08:55.201Z,7.07
2022-11-12T03:11:25.289Z,7.10
2022-11-12T03:13:55.484Z,6.65
2022-11-12T03:16:27.575Z,7.75
2022-11-12T03:19:00.640Z,7.80
2022-11-12T03:21:30.809Z,7.00
2022-11-12T03:24:04.671Z,7.43
2022-11-12T03:26:36.068Z,7.68
2022-11-12T03:29:06.423Z,7.20
2022-11-12T03:31:36.605Z,6.82
2022-11-12T03:34:06.837Z,7.47
2022-11-12T03:36:37.032Z,6.60
2022-11-12T03:39:09.972Z,7.95
2022-11-12T03:41:40.238Z,6.50
2022-11-12T03:44:10.314Z,7.63
2022-11-12T03:46:44.131Z,7.43
2022-11-12T03:49:14.553Z,7.20
2022-11-12T03:51:44.474Z,7.15
2022-11-12T03:54:17.403Z,7.32
2022-11-12T03:56:49.508Z,7.70
2022-11-12T03:59:19.771Z,7.60
2022-11-12T04:01:49.979Z,7.15
2022-11-12T04:04:20.253Z,7.78
2022-11-12T04:07:02.708Z,7.40
2022-11-12T04:09:35.455Z,8.05
2022-11-12T04:12:26.587Z,8.07
2022-11-12T04:14:55.319Z,8.95
2022-11-12T04:17:37.742Z,8.05
2022-11-12T04:20:20.914Z,8.05
2022-11-12T04:22:51.256Z,8.05
2022-11-12T04:25:38.147Z,7.70
2022-11-12T04:28:08.182Z,7.32
2022-11-12T04:30:38.189Z,7.82
2022-11-12T04:33:13.922Z,7.13
2022-11-12T04:35:43.900Z,7.47
2022-11-12T04:38:14.086Z,8.27
2022-11-12T04:40:59.098Z,7.45
2022-11-12T04:43:41.504Z,7.78
2022-11-12T04:46:14.578Z,9.00
2022-11-12T04:48:44.817Z,8.32
2022-11-12T04:51:27.535Z,7.57
2022-11-12T04:54:18.882Z,7.43
2022-11-12T04:56:51.484Z,7.68
2022-11-12T04:59:21.628Z,7.85
2022-11-12T05:01:51.635Z,7.68
2022-11-12T05:04:22.045Z,7.20
2022-11-12T05:06:55.542Z,6.82
2022-11-12T05:09:27.046Z,6.75
2022-11-12T05:11:59.964Z,7.32
2022-11-12T05:14:30.221Z,7.07
2022-11-12T05:17:00.166Z,6.47
2022-11-12T05:19:30.252Z,6.88
2022-11-12T05:22:06.525Z,8.15
2022-11-12T05:24:42.734Z,7.03
2022-11-12T05:27:17.999Z,6.65
2022-11-12T05:29:48.037Z,6.70
2022-11-12T05:32:19.384Z,6.47
2022-11-12T05:34:49.436Z,7.25
2022-11-12T05:37:19.728Z,6.93
2022-11-12T05:39:49.768Z,6.50
2022-11-12T05:42:22.379Z,6.80
2022-11-12T05:44:52.447Z,6.90
2022-11-12T05:47:22.404Z,6.43
2022-11-12T05:49:52.427Z,6.70
2022-11-12T05:52:22.733Z,5.72
2022-11-12T05:54:52.877Z,6.35
2022-11-12T05:57:25.468Z,6.22
2022-11-12T05:59:55.880Z,6.07
2022-11-12T06:02:25.847Z,9.13
2022-11-12T06:04:56.200Z,6.00
2022-11-12T06:07:26.374Z,5.63
2022-11-12T06:09:56.590Z,6.00
2022-11-12T06:12:29.190Z,6.82
2022-11-12T06:14:59.197Z,8.50
2022-11-12T06:17:29.617Z,9.15
2022-11-12T06:19:59.689Z,6.65
2022-11-12T06:22:29.724Z,5.78
2022-11-12T06:24:59.779Z,7.05
2022-11-12T06:27:32.423Z,7.47
2022-11-12T06:30:02.745Z,12.43
2022-11-12T06:32:33.018Z,6.40
2022-11-12T06:35:03.108Z,6.10
2022-11-12T06:37:33.317Z,6.43
2022-11-12T06:40:03.673Z,6.10
2022-11-12T06:42:36.596Z,10.30
2022-11-12T06:45:07.576Z,7.18
2022-11-12T06:47:37.797Z,5.70
2022-11-12T06:50:09.734Z,5.68
2022-11-12T06:52:39.808Z,6.13
2022-11-12T06:55:12.897Z,5.57
2022-11-12T06:57:45.637Z,5.97
2022-11-12T07:00:17.038Z,5.72
2022-11-12T07:02:47.044Z,6.22
2022-11-12T07:05:17.205Z,5.28
2022-11-12T07:07:47.239Z,5.30
2022-11-12T07:10:17.330Z,4.85
2022-11-12T07:12:53.373Z,7.32
2022-11-12T07:15:23.801Z,6.38
2022-11-12T07:17:54.015Z,6.22
2022-11-12T07:20:24.030Z,6.50
2022-11-12T07:22:54.021Z,6.68
2022-11-12T07:25:24.164Z,6.30
2022-11-12T07:27:56.795Z,6.50
2022-11-12T07:30:26.863Z,6.40
2022-11-12T07:33:00.163Z,5.90
2022-11-12T07:35:30.539Z,5.60
2022-11-12T07:38:00.879Z,6.47
2022-11-12T07:40:30.906Z,6.32
2022-11-12T07:43:04.946Z,6.07
2022-11-12T07:45:35.175Z,6.20
2022-11-12T07:48:05.181Z,6.38
2022-11-12T07:50:35.402Z,8.50
2022-11-12T07:53:06.916Z,6.60
2022-11-12T07:55:37.014Z,5.75
2022-11-12T07:58:09.579Z,5.22
2022-11-12T08:00:39.569Z,4.53
2022-11-12T08:03:09.474Z,4.40
2022-11-12T08:05:39.455Z,4.45
2022-11-12T08:08:09.466Z,4.75
2022-11-12T08:10:39.599Z,5.93
2022-11-12T08:13:12.177Z,4.90
2022-11-12T08:15:42.418Z,5.45
2022-11-12T08:18:12.347Z,5.63
2022-11-12T08:20:42.775Z,6.75
2022-11-12T08:23:13.054Z,6.47
2022-11-12T08:25:43.333Z,5.55
2022-11-12T08:28:15.983Z,5.65
2022-11-12T08:30:45.965Z,6.10
2022-11-12T08:33:15.893Z,6.65
2022-11-12T08:35:45.957Z,5.80
2022-11-12T08:38:16.774Z,5.90
2022-11-12T08:40:46.839Z,6.15
2022-11-12T08:43:19.357Z,6.38
2022-11-12T08:45:50.210Z,5.38
2022-11-12T08:48:20.116Z,5.28
2022-11-12T08:50:50.163Z,5.30
2022-11-12T08:53:20.134Z,5.43
2022-11-12T08:55:50.117Z,4.60
2022-11-12T08:58:22.699Z,4.82
2022-11-12T09:00:52.953Z,5.50
2022-11-12T09:03:25.019Z,5.28
2022-11-12T09:05:55.762Z,5.22
2022-11-12T09:08:27.810Z,5.38
2022-11-12T09:11:00.579Z,5.15
2022-11-12T09:13:33.198Z,5.03
2022-11-12T09:16:04.968Z,4.60
2022-11-12T09:18:35.939Z,5.13
2022-11-12T09:21:07.974Z,5.07
2022-11-12T09:23:39.058Z,4.78
2022-11-12T09:26:09.822Z,5.20
2022-11-12T09:28:43.099Z,4.93
2022-11-12T09:31:13.207Z,4.88
2022-11-12T09:33:43.146Z,4.78
2022-11-12T09:36:13.355Z,4.40
2022-11-12T09:38:43.287Z,4.28
2022-11-12T09:41:30.652Z,4.75
2022-11-12T09:44:05.436Z,5.47
2022-11-12T09:46:41.801Z,4.60
2022-11-12T09:49:19.063Z,4.95
2022-11-12T09:51:55.787Z,4.93
2022-11-12T09:54:27.881Z,4.68
2022-11-12T09:56:58.544Z,4.82
2022-11-12T09:59:34.768Z,4.65
2022-11-12T10:02:18.776Z,4.65
2022-11-12T10:05:02.749Z,4.88
2022-11-12T10:07:46.341Z,6.70
2022-11-12T10:10:18.532Z,14.98
2022-11-12T10:13:01.760Z,12.32
2022-11-12T10:16:13.891Z,5.00
2022-11-12T10:19:02.302Z,5.82
2022-11-12T10:21:39.446Z,4.78
2022-11-12T10:24:12.412Z,5.55
2022-11-12T10:26:42.978Z,4.47
2022-11-12T10:29:22.378Z,4.90
2022-11-12T10:31:54.933Z,4.85
2022-11-12T10:34:26.770Z,5.55
2022-11-12T10:37:00.220Z,5.00
2022-11-12T10:39:38.450Z,4.65
2022-11-12T10:42:10.632Z,4.43
2022-11-12T10:44:42.515Z,4.85
2022-11-12T10:47:43.122Z,4.32
2022-11-12T10:50:22.691Z,4.88
2022-11-12T10:53:01.093Z,4.75
2022-11-12T10:55:32.744Z,4.53
2022-11-12T10:58:19.875Z,5.00
2022-11-12T11:00:58.996Z,5.00
2022-11-12T11:03:34.400Z,5.40
2022-11-12T11:06:07.732Z,5.15
2022-11-12T11:08:42.726Z,4.70
2022-11-12T11:11:24.514Z,4.03
2022-11-12T11:13:55.971Z,4.30
2022-11-12T11:16:28.031Z,3.92
2022-11-12T11:19:02.723Z,3.50
2022-11-12T11:21:49.391Z,3.42
2022-11-12T11:24:29.966Z,3.28
2022-11-12T11:27:05.939Z,3.25
2022-11-12T11:29:48.835Z,3.58
2022-11-12T11:32:37.225Z,3.55
2022-11-12T11:35:21.959Z,3.40
2022-11-12T11:37:58.588Z,3.95
2022-11-12T11:40:33.048Z,3.55
2022-11-12T11:43:26.505Z,3.72
2022-11-12T11:46:09.648Z,3.20
2022-11-12T11:48:47.760Z,3.75
2022-11-12T11:51:41.248Z,4.43
2022-11-12T11:54:25.480Z,8.18
2022-11-12T11:57:00.860Z,4.30
2022-11-12T11:59:39.646Z,3.83
2022-11-12T12:02:39.507Z,4.22
2022-11-12T12:05:29.103Z,3.92
2022-11-12T12:08:06.068Z,3.63
2022-11-12T12:11:06.871Z,5.10
2022-11-12T12:13:46.060Z,5.53
2022-11-12T12:16:34.185Z,4.63
2022-11-12T12:19:11.016Z,3.60
2022-11-12T12:21:46.528Z,3.60
2022-11-12T12:24:22.929Z,4.20
2022-11-12T12:26:56.905Z,4.63
2022-11-12T12:29:32.668Z,3.53
2022-11-12T12:32:09.741Z,3.88
2022-11-12T12:34:42.812Z,5.05
2022-11-12T12:37:20.032Z,4.28
2022-11-12T12:39:57.862Z,3.97
2022-11-12T12:42:32.227Z,4.90
2022-11-12T12:45:08.915Z,4.00
2022-11-12T12:47:43.329Z,4.15
2022-11-12T12:50:17.140Z,4.50
2022-11-12T12:53:02.665Z,3.80
2022-11-12T12:55:44.271Z,3.97
2022-11-12T12:58:30.328Z,4.45
2022-11-12T13:01:08.216Z,4.03
2022-11-12T13:04:04.590Z,3.50
2022-11-12T13:06:37.254Z,3.78
2022-11-12T13:09:10.189Z,3.38
2022-11-12T13:12:10.841Z,3.70
2022-11-12T13:15:15.376Z,3.15
2022-11-12T13:17:51.026Z,3.17
2022-11-12T13:20:40.310Z,3.92
2022-11-12T13:23:55.650Z,3.72
2022-11-12T13:26:59.165Z,3.42
2022-11-12T13:32:33.960Z,3.13
2022-11-12T13:35:23.474Z,3.78
2022-11-12T13:37:56.424Z,2.58
2022-11-12T13:40:41.610Z,3.78
2022-11-12T13:43:35.667Z,3.72
2022-11-12T13:46:27.347Z,50.95
2022-11-12T13:49:02.782Z,4.43
2022-11-12T13:51:43.075Z,3.00
2022-11-12T13:54:30.530Z,2.80
2022-11-12T13:57:15.351Z,3.35
2022-11-12T13:59:50.219Z,2.95
2022-11-12T14:02:25.515Z,3.22
2022-11-12T14:04:56.811Z,3.25
2022-11-12T14:07:44.528Z,3.97
2022-11-12T14:10:28.792Z,2.83
2022-11-12T14:13:31.589Z,2.80
2022-11-12T14:16:18.482Z,3.33
2022-11-12T14:19:22.029Z,3.47
2022-11-12T14:22:17.622Z,3.92
2022-11-12T14:24:48.996Z,3.17
2022-11-12T14:27:36.736Z,3.17
2022-11-12T14:30:21.688Z,3.42
2022-11-12T14:32:56.279Z,3.92
2022-11-12T14:35:33.161Z,3.65
2022-11-12T14:38:07.035Z,3.38
2022-11-12T14:40:40.359Z,3.15
2022-11-12T14:43:27.292Z,3.25
2022-11-12T14:45:59.947Z,2.85
2022-11-12T14:48:33.613Z,2.92
2022-11-12T14:51:08.893Z,3.67
2022-11-12T14:53:44.084Z,3.40
2022-11-12T14:56:28.946Z,3.47
2022-11-12T14:59:03.290Z,3.05
2022-11-12T15:04:29.649Z,4.28
2022-11-12T15:07:00.169Z,4.00
2022-11-12T15:09:38.542Z,4.15
2022-11-12T15:12:12.745Z,3.08
2022-11-12T15:14:43.049Z,3.40
2022-11-12T15:17:30.360Z,3.42
2022-11-12T15:20:08.511Z,3.30
2022-11-12T15:22:38.509Z,3.22
2022-11-12T15:25:22.046Z,2.92
2022-11-12T15:27:52.894Z,2.88
2022-11-12T15:33:11.500Z,2.95
2022-11-12T15:35:45.455Z,9.23
2022-11-12T15:38:20.597Z,6.50
2022-11-12T15:40:57.803Z,4.90
2022-11-12T15:46:01.067Z,3.70
2022-11-12T15:48:31.143Z,3.60
2022-11-12T15:51:04.063Z,3.63
2022-11-12T15:53:34.003Z,3.55
2022-11-12T15:56:04.881Z,4.35
2022-11-12T16:01:08.001Z,4.38
2022-11-12T16:03:37.954Z,6.05
2022-11-12T16:06:14.063Z,8.35
2022-11-12T16:08:44.053Z,6.50
2022-11-12T16:11:35.561Z,6.25
2022-11-12T16:14:06.652Z,6.40
2022-11-12T16:16:39.365Z,14.80
2022-11-12T16:19:16.762Z,22.95
2022-11-12T16:24:20.521Z,11.32
2022-11-12T16:26:50.696Z,7.60
2022-11-12T16:29:20.690Z,7.28
2022-11-12T16:31:50.714Z,4.93
2022-11-12T16:34:20.882Z,5.45
2022-11-12T16:36:53.677Z,4.97
2022-11-12T16:39:23.632Z,5.72
2022-11-12T16:41:53.927Z,5.43
2022-11-12T16:44:23.836Z,5.65
2022-11-12T16:46:53.756Z,6.10
2022-11-12T16:49:24.067Z,6.07
2022-11-12T16:51:56.663Z,5.85
2022-11-12T16:54:26.610Z,6.68
2022-11-12T16:56:56.745Z,11.77
2022-11-12T16:59:26.686Z,9.07
2022-11-12T17:01:56.753Z,8.05
2022-11-12T17:04:27.599Z,6.93
2022-11-12T17:09:30.387Z,11.52
2022-11-12T17:12:00.318Z,26.42
2022-11-12T17:14:30.246Z,11.45
2022-11-12T17:17:00.245Z,9.80
2022-11-12T17:19:30.293Z,7.93
2022-11-12T17:22:02.859Z,7.20
2022-11-12T17:24:33.140Z,7.57
2022-11-12T17:27:03.124Z,7.53
2022-11-12T17:29:33.218Z,7.80
2022-11-12T17:32:03.116Z,8.00
2022-11-12T17:34:33.187Z,22.20
2022-11-12T17:37:05.732Z,12.65
2022-11-12T17:39:35.761Z,8.57
2022-11-12T17:42:06.211Z,9.05
2022-11-12T17:44:36.258Z,10.13
2022-11-12T17:47:06.355Z,9.98
2022-11-12T17:49:36.396Z,9.43
2022-11-12T17:52:08.996Z,9.60
2022-11-12T17:54:39.014Z,10.35
2022-11-12T17:57:09.193Z,14.27
2022-11-12T17:59:39.241Z,11.43
2022-11-12T18:02:09.428Z,11.63
2022-11-12T18:04:39.466Z,13.02
2022-11-12T18:07:14.383Z,14.90
2022-11-12T18:09:44.406Z,15.65
2022-11-12T18:12:14.342Z,17.55
2022-11-12T18:14:45.867Z,20.20
2022-11-12T18:17:16.227Z,20.23
2022-11-12T18:19:46.192Z,19.25
2022-11-12T18:22:19.557Z,17.20
2022-11-12T18:24:50.812Z,16.58
2022-11-12T18:27:20.737Z,16.17
2022-11-12T18:29:50.677Z,15.70
2022-11-12T18:32:20.598Z,14.90
2022-11-12T18:34:50.837Z,15.15
2022-11-12T18:37:23.417Z,14.18
2022-11-12T18:39:53.455Z,14.95
2022-11-12T18:42:23.771Z,14.13
2022-11-12T18:44:53.772Z,16.45
2022-11-12T18:47:23.728Z,15.88
2022-11-12T18:49:53.764Z,16.40
2022-11-12T18:52:26.462Z,14.48
2022-11-12T18:54:56.445Z,17.23
2022-11-12T18:57:26.451Z,16.50
2022-11-12T18:59:56.516Z,27.38
2022-11-12T19:02:26.710Z,16.75
2022-11-12T19:04:56.844Z,15.57
2022-11-12T19:07:29.479Z,16.67
2022-11-12T19:09:59.590Z,17.60
2022-11-12T19:12:29.548Z,16.95
2022-11-12T19:14:59.624Z,16.48
2022-11-12T19:17:31.174Z,15.48
2022-11-12T19:20:01.556Z,17.08
2022-11-12T19:22:34.205Z,16.58
2022-11-12T19:25:04.555Z,16.98
2022-11-12T19:27:34.559Z,17.55
2022-11-12T19:30:05.909Z,16.40
2022-11-12T19:32:36.120Z,16.98
2022-11-12T19:35:06.117Z,17.83
2022-11-12T19:37:38.727Z,17.08
2022-11-12T19:40:11.030Z,16.40
2022-11-12T19:42:41.084Z,16.35
2022-11-12T19:45:11.595Z,17.00
2022-11-12T19:47:41.649Z,15.63
2022-11-12T19:50:12.391Z,14.77
2022-11-12T19:52:44.956Z,15.55
2022-11-12T19:55:15.053Z,14.43
2022-11-12T19:57:47.438Z,16.50
2022-11-12T20:00:18.732Z,21.08
2022-11-12T20:02:48.911Z,15.90
2022-11-12T20:05:19.152Z,14.90
2022-11-12T20:07:53.961Z,16.13
2022-11-12T20:10:24.019Z,17.42
2022-11-12T20:12:53.999Z,16.17
2022-11-12T20:15:24.105Z,16.73
2022-11-12T20:17:54.304Z,15.15
2022-11-12T20:20:24.342Z,14.75
2022-11-12T20:22:56.931Z,15.55
2022-11-12T20:25:27.073Z,14.50
2022-11-12T20:27:57.279Z,15.98
2022-11-12T20:30:27.266Z,17.80
2022-11-12T20:32:57.294Z,14.95
2022-11-12T20:35:27.400Z,15.35
2022-11-12T20:38:00.063Z,17.45
2022-11-12T20:40:30.067Z,17.25
2022-11-12T20:43:00.178Z,18.30
